Time;durP1;ratioP1;P1;durP2;ratioP2;P2;SDS_P1;SDS_P2;PMS_P1;PMS_P2;Temp;Humidity;BMP_temperature;BMP_pressure;BME280_temperature;BME280_humidity;BME280_pressure;Samples;Min_cycle;Max_cycle;Signal;HPM_P1;HPM_P2
2021/04/25 00:00:17;;;;;;;;;15.25;15.00;;;;;29.44;57.40;98636.66;4975612;28;8853;-75
2021/04/25 00:02:45;;;;;;;;;15.25;15.25;;;;;29.50;57.48;98654.88;4975555;28;8964;-75
2021/04/25 00:05:15;;;;;;;;;14.00;14.00;;;;;29.50;57.63;98660.31;4963399;28;8962;-78
2021/04/25 00:07:45;;;;;;;;;15.50;15.25;;;;;29.49;57.70;98657.97;4964331;28;8892;-74
2021/04/25 00:10:15;;;;;;;;;14.50;14.50;;;;;29.51;56.66;98670.00;4965612;28;8917;-77
2021/04/25 00:12:44;;;;;;;;;18.50;17.50;;;;;29.48;56.69;98672.75;4973365;28;8869;-78
2021/04/25 00:15:22;;;;;;;;;14.50;14.50;;;;;29.51;56.92;98677.38;4974057;28;9013;-78
2021/04/25 00:17:51;;;;;;;;;15.00;15.00;;;;;29.52;56.12;98681.66;4975226;28;8865;-78
2021/04/25 00:20:21;;;;;;;;;16.00;16.00;;;;;29.56;58.67;98687.06;4974918;28;8889;-78
2021/04/25 00:22:50;;;;;;;;;13.00;13.00;;;;;29.56;57.49;98687.84;4975035;28;9920;-79
2021/04/25 00:25:19;;;;;;;;;14.25;14.25;;;;;29.57;57.24;98692.13;4975295;28;8861;-76
2021/04/25 00:27:48;;;;;;;;;15.25;15.25;;;;;29.60;57.58;98687.84;4974715;28;8881;-77
2021/04/25 00:30:20;;;;;;;;;18.75;16.00;;;;;29.57;57.34;98691.34;4974716;28;8841;-78
2021/04/25 00:32:49;;;;;;;;;17.75;17.75;;;;;29.63;57.57;98695.97;4975769;28;8865;-78
2021/04/25 00:35:19;;;;;;;;;16.00;16.00;;;;;29.66;56.79;98703.34;4970615;28;8869;-76
2021/04/25 00:37:48;;;;;;;;;16.25;16.25;;;;;29.67;56.87;98704.91;4963838;28;8860;-76
2021/04/25 00:40:18;;;;;;;;;17.50;17.50;;;;;29.70;56.80;98711.47;4963953;28;8853;-74
2021/04/25 00:42:47;;;;;;;;;17.75;17.75;;;;;29.71;57.15;98697.50;4962146;28;8855;-73
2021/04/25 00:45:17;;;;;;;;;17.50;17.50;;;;;29.73;56.86;98703.31;4963043;28;8865;-74
2021/04/25 00:47:49;;;;;;;;;18.75;18.75;;;;;29.74;56.58;98707.59;4973882;28;8857;-75
2021/04/25 00:50:24;;;;;;;;;15.25;15.25;;;;;29.75;56.76;98720.00;4973741;28;8849;-75
2021/04/25 00:52:57;;;;;;;;;7.50;7.50;;;;;29.80;56.70;98722.31;4973604;28;8943;-77
2021/04/25 00:55:27;;;;;;;;;16.50;16.50;;;;;29.82;56.57;98719.97;4974265;28;8880;-80
2021/04/25 00:57:57;;;;;;;;;15.75;15.75;;;;;29.86;57.13;98723.44;4974719;28;8888;-78
2021/04/25 01:00:26;;;;;;;;;15.00;15.00;;;;;29.90;57.71;98734.31;4973548;28;8890;-78
2021/04/25 01:03:01;;;;;;;;;21.00;21.00;;;;;29.92;57.37;98731.16;4971557;28;8883;-77
2021/04/25 01:05:29;;;;;;;;;16.50;16.50;;;;;29.97;56.73;98731.53;4976719;28;8878;-77
2021/04/25 01:07:57;;;;;;;;;17.00;17.00;;;;;30.01;57.41;98737.75;4975326;28;8837;-76
2021/04/25 01:10:27;;;;;;;;;22.50;21.00;;;;;30.06;57.36;98739.28;4973216;28;9671;-75
2021/04/25 01:12:56;;;;;;;;;18.00;18.00;;;;;30.08;56.80;98736.94;4973606;28;8923;-76
2021/04/25 01:15:24;;;;;;;;;20.25;20.25;;;;;30.10;57.45;98737.31;4973296;28;8841;-76
2021/04/25 01:17:52;;;;;;;;;17.25;16.75;;;;;30.19;57.72;98753.97;4973395;28;9689;-75
2021/04/25 01:20:22;;;;;;;;;18.25;18.25;;;;;30.21;57.52;98753.59;4970143;28;9589;-74
2021/04/25 01:22:51;;;;;;;;;18.75;18.75;;;;;30.29;56.80;98765.97;4972949;28;8837;-77
2021/04/25 01:25:22;;;;;;;;;21.75;21.75;;;;;30.30;57.09;98762.88;4970382;28;8821;-76
2021/04/25 01:27:51;;;;;;;;;21.75;21.75;;;;;30.38;56.60;98758.16;4972784;28;8858;-78
2021/04/25 01:30:26;;;;;;;;;24.75;24.25;;;;;30.41;56.27;98758.13;4950611;28;8926;-74
2021/04/25 01:32:55;;;;;;;;;21.25;20.50;;;;;30.46;56.72;98763.16;4981353;28;9685;-78
2021/04/25 01:35:25;;;;;;;;;21.25;20.50;;;;;30.50;56.68;98768.56;4992454;28;8933;-77
2021/04/25 01:37:55;;;;;;;;;22.25;22.25;;;;;30.54;57.10;98763.88;4980093;28;8908;-76
2021/04/25 01:40:26;;;;;;;;;22.00;20.00;;;;;30.58;55.19;98758.44;4982115;28;8827;-75
2021/04/25 01:42:55;;;;;;;;;18.25;18.25;;;;;30.63;56.38;98755.28;4982125;28;8980;-75
2021/04/25 01:45:24;;;;;;;;;20.75;20.75;;;;;30.69;56.98;98759.13;4975828;28;8869;-76
2021/04/25 01:47:54;;;;;;;;;19.25;18.00;;;;;30.76;56.26;98761.81;4992941;28;8862;-77
2021/04/25 01:50:26;;;;;;;;;19.25;19.25;;;;;30.83;56.49;98759.81;4992466;28;8857;-75
2021/04/25 01:52:57;;;;;;;;;22.00;20.25;;;;;30.88;55.58;98760.53;4976299;28;8870;-75
2021/04/25 01:55:27;;;;;;;;;19.50;19.50;;;;;30.99;56.38;98767.44;4992725;28;8948;-76
2021/04/25 01:57:56;;;;;;;;;25.25;24.00;;;;;31.07;56.63;98770.88;4981244;28;8869;-76
2021/04/25 02:00:31;;;;;;;;;21.25;21.25;;;;;31.12;55.89;98771.22;4975186;28;8861;-77
2021/04/25 02:03:01;;;;;;;;;18.75;18.75;;;;;31.13;55.16;98761.91;4992051;28;8850;-77
2021/04/25 02:05:29;;;;;;;;;19.75;19.75;;;;;31.20;55.13;98763.78;4992031;28;8865;-76
2021/04/25 02:07:58;;;;;;;;;18.00;17.00;;;;;31.27;54.61;98768.38;4992426;28;8854;-77
2021/04/25 02:10:26;;;;;;;;;19.25;17.75;;;;;31.27;55.77;98763.69;4991861;28;8921;-76
2021/04/25 02:12:55;;;;;;;;;21.00;21.00;;;;;31.41;55.29;98777.19;4973022;28;8849;-76
2021/04/25 02:15:25;;;;;;;;;21.25;20.00;;;;;31.49;56.26;98777.88;4975329;28;8826;-77
2021/04/25 02:17:53;;;;;;;;;23.25;23.25;;;;;31.57;56.14;98787.53;4981155;28;8836;-76
2021/04/25 02:20:23;;;;;;;;;21.75;21.75;;;;;31.65;54.92;98780.81;4972892;28;8835;-77
2021/04/25 02:22:53;;;;;;;;;20.25;20.25;;;;;31.75;54.38;98787.34;4973100;28;8988;-76
2021/04/25 02:25:22;;;;;;;;;20.25;20.25;;;;;31.79;54.52;98786.13;4955785;28;8849;-76
2021/04/25 02:27:50;;;;;;;;;18.25;18.25;;;;;31.90;54.07;98793.41;4955849;28;8850;-76
2021/04/25 02:30:25;;;;;;;;;17.25;17.25;;;;;31.95;53.97;98787.50;4972668;28;8932;-76
2021/04/25 02:32:54;;;;;;;;;21.75;20.75;;;;;32.03;53.99;98794.44;4973985;28;8841;-75
2021/04/25 02:35:24;;;;;;;;;17.25;17.25;;;;;32.09;54.02;98801.75;4977561;28;8846;-78
2021/04/25 02:37:52;;;;;;;;;21.00;20.75;;;;;32.16;54.11;98794.66;4981514;28;8964;-79
2021/04/25 02:40:27;;;;;;;;;18.50;18.50;;;;;32.22;54.18;98787.56;4977377;28;8854;-74
2021/04/25 02:42:56;;;;;;;;;21.25;21.25;;;;;32.29;53.92;98787.50;4975865;28;9714;-77
2021/04/25 02:45:26;;;;;;;;;18.25;18.25;;;;;32.34;53.34;98787.81;4974723;28;8849;-71
2021/04/25 02:47:57;;;;;;;;;15.25;15.25;;;;;32.42;52.84;98793.94;4975992;28;8851;-75
2021/04/25 02:50:30;;;;;;;;;18.00;15.50;;;;;32.49;52.51;98790.34;4974080;28;8864;-72
2021/04/25 02:52:59;;;;;;;;;20.50;20.50;;;;;32.50;52.97;98787.19;4975537;28;8949;-76
2021/04/25 02:55:27;;;;;;;;;17.50;17.00;;;;;32.57;52.65;98791.75;4977045;28;9622;-80
2021/04/25 02:57:55;;;;;;;;;18.25;18.25;;;;;32.65;52.74;98793.19;4976545;28;8853;-80
2021/04/25 03:00:26;;;;;;;;;19.00;19.00;;;;;32.67;52.26;98794.31;4973672;28;8851;-79
2021/04/25 03:03:04;;;;;;;;;21.50;21.50;;;;;32.71;52.45;98781.38;4982179;28;8993;-82
2021/04/25 03:05:33;;;;;;;;;20.00;19.50;;;;;32.75;51.71;98789.50;4990863;28;8842;-80
2021/04/25 03:08:02;;;;;;;;;23.25;23.25;;;;;32.85;51.71;98780.41;4993094;28;8827;-79
2021/04/25 03:10:30;;;;;;;;;21.75;21.75;;;;;32.84;52.31;98770.66;4973336;28;8839;-78
2021/04/25 03:12:58;;;;;;;;;24.25;23.75;;;;;33.00;52.19;98783.69;4977086;28;8819;-78
2021/04/25 03:15:27;;;;;;;;;18.50;18.50;;;;;33.00;51.55;98779.00;4973289;28;8925;-81
2021/04/25 03:17:55;;;;;;;;;20.25;18.25;;;;;33.09;51.10;98781.19;4977690;28;8865;-81
2021/04/25 03:20:24;;;;;;;;;16.75;16.75;;;;;33.15;51.36;98774.06;4974119;28;8858;-80
2021/04/25 03:22:53;;;;;;;;;16.25;16.25;;;;;33.18;51.31;98775.94;4974773;28;8834;-77
2021/04/25 03:25:21;;;;;;;;;19.50;17.50;;;;;33.18;51.42;98766.97;4978211;28;8818;-79
2021/04/25 03:27:50;;;;;;;;;15.00;15.00;;;;;33.24;51.08;98771.53;4967573;28;8826;-77
2021/04/25 03:30:20;;;;;;;;;14.00;14.00;;;;;33.26;50.70;98760.19;4984234;28;9556;-78
2021/04/25 03:32:49;;;;;;;;;14.50;14.50;;;;;33.31;50.33;98765.22;4977330;28;9685;-75
2021/04/25 03:35:18;;;;;;;;;16.25;16.25;;;;;33.34;49.95;98765.13;4976407;28;8850;-76
2021/04/25 03:37:47;;;;;;;;;16.25;16.00;;;;;33.42;50.10;98768.50;4979797;28;8846;-77
2021/04/25 03:40:19;;;;;;;;;14.00;14.00;;;;;33.47;50.39;98765.28;4987287;28;9000;-76
2021/04/25 03:42:48;;;;;;;;;14.25;14.25;;;;;33.46;50.51;98762.97;4983058;28;8834;-77
2021/04/25 03:45:19;;;;;;;;;18.25;18.25;;;;;33.47;50.49;98761.78;4984186;28;8977;-76
2021/04/25 03:47:50;;;;;;;;;19.75;19.50;;;;;33.52;50.03;98764.03;4986576;28;9586;-76
2021/04/25 03:50:21;;;;;;;;;15.00;15.00;;;;;33.59;49.72;98767.41;4986472;28;8846;-83
2021/04/25 03:52:50;;;;;;;;;19.25;18.75;;;;;33.64;49.79;98763.41;4989920;28;8846;-82
2021/04/25 03:55:19;;;;;;;;;19.00;19.00;;;;;33.67;50.40;98766.06;4972948;28;8854;-78
2021/04/25 03:57:49;;;;;;;;;20.75;20.75;;;;;33.71;49.51;98768.75;5000843;28;8932;-80
2021/04/25 04:00:19;;;;;;;;;18.25;17.50;;;;;33.71;49.02;98758.56;4987906;28;8920;-80
2021/04/25 04:02:47;;;;;;;;;16.75;15.50;;;;;33.79;49.17;98764.66;4980024;28;8846;-79
2021/04/25 04:05:16;;;;;;;;;14.00;14.00;;;;;33.86;48.40;98753.56;4975560;28;8869;-78
2021/04/25 04:07:44;;;;;;;;;16.50;16.50;;;;;33.90;49.04;98748.03;4977646;28;8850;-81
2021/04/25 04:10:13;;;;;;;;;15.50;15.00;;;;;34.01;49.81;98751.31;4979185;28;8854;-81
2021/04/25 04:12:42;;;;;;;;;13.20;13.20;;;;;34.15;48.45;98752.97;4982943;28;8942;-80
2021/04/25 04:15:12;;;;;;;;;16.75;16.25;;;;;34.27;48.57;98752.31;4991088;28;8969;-81
2021/04/25 04:17:40;;;;;;;;;17.25;16.25;;;;;34.37;47.53;98745.06;4991746;28;8889;-83
2021/04/25 04:20:09;;;;;;;;;16.25;15.25;;;;;34.49;46.96;98741.66;4989179;28;8847;-80
2021/04/25 04:22:38;;;;;;;;;15.00;15.00;;;;;34.61;47.20;98732.75;4981182;28;8858;-74
2021/04/25 04:25:07;;;;;;;;;16.50;16.50;;;;;34.77;47.11;98738.22;4975373;28;8838;-76
2021/04/25 04:27:35;;;;;;;;;13.60;13.60;;;;;34.82;47.31;98740.47;4976728;28;8866;-77
2021/04/25 04:30:06;;;;;;;;;13.20;13.20;;;;;34.90;47.51;98743.81;4955929;28;8931;-79
2021/04/25 04:32:34;;;;;;;;;15.80;15.80;;;;;34.88;45.45;98747.00;4973035;28;8909;-77
2021/04/25 04:35:04;;;;;;;;;13.20;13.20;;;;;34.89;45.91;98734.81;4972604;28;8956;-77
2021/04/25 04:37:32;;;;;;;;;14.60;14.60;;;;;34.91;45.47;98740.66;4973382;28;8833;-81
2021/04/25 04:40:01;;;;;;;;;13.60;13.60;;;;;35.00;45.21;98737.28;4974984;28;8854;-77
2021/04/25 04:42:29;;;;;;;;;15.60;14.60;;;;;35.08;45.08;98735.91;4974274;28;8837;-77
2021/04/25 04:44:57;;;;;;;;;17.00;17.00;;;;;35.10;45.50;98732.72;4975803;28;8904;-81
2021/04/25 04:47:25;;;;;;;;;15.80;15.80;;;;;35.12;45.62;98725.59;4979782;28;8858;-84
2021/04/25 04:49:54;;;;;;;;;3.80;3.80;;;;;35.10;45.76;98724.50;4974463;28;8831;-77
2021/04/25 04:52:23;;;;;;;;;15.80;15.80;;;;;35.07;45.48;98717.91;4972260;28;8860;-79
2021/04/25 04:54:51;;;;;;;;;17.60;17.60;;;;;35.08;47.12;98716.72;4972284;28;9606;-79
2021/04/25 04:57:19;;;;;;;;;13.80;13.80;;;;;35.08;46.43;98716.72;4972028;28;8850;-79
2021/04/25 04:59:48;;;;;;;;;14.60;14.60;;;;;35.12;46.37;98711.09;4971625;28;8850;-76
2021/04/25 05:02:16;;;;;;;;;17.00;15.60;;;;;35.20;46.77;98715.19;4955367;28;8852;-74
2021/04/25 05:04:45;;;;;;;;;18.80;18.80;;;;;35.27;45.05;98712.25;4972379;28;8872;-75
2021/04/25 05:07:13;;;;;;;;;11.80;11.80;;;;;35.31;46.11;98704.75;4972174;28;8887;-75
2021/04/25 05:09:41;;;;;;;;;15.40;15.00;;;;;35.40;45.33;98706.84;4955084;28;8853;-79
2021/04/25 05:12:10;;;;;;;;;14.20;14.20;;;;;35.42;45.17;98698.94;4971679;28;8901;-75
2021/04/25 05:14:40;;;;;;;;;11.80;11.80;;;;;35.46;44.58;98680.41;4976070;28;8853;-78
2021/04/25 05:17:09;;;;;;;;;13.00;13.00;;;;;35.54;44.38;98684.50;4976275;28;8873;-78
2021/04/25 05:19:38;;;;;;;;;13.00;13.00;;;;;35.66;44.88;98678.25;4954083;28;8886;-76
2021/04/25 05:22:06;;;;;;;;;10.60;10.60;;;;;35.70;45.14;98669.94;4968838;28;8894;-78
2021/04/25 05:24:35;;;;;;;;;12.80;12.80;;;;;35.76;45.32;98676.41;4967973;28;8879;-78
2021/04/25 05:27:03;;;;;;;;;13.20;13.20;;;;;35.83;44.89;98657.78;4972943;28;8850;-77
2021/04/25 05:29:32;;;;;;;;;10.00;10.00;;;;;35.88;43.27;98659.22;4973189;28;8848;-73
2021/04/25 05:32:01;;;;;;;;;15.40;15.40;;;;;35.98;45.14;98651.84;4971760;28;9004;-77
2021/04/25 05:34:30;;;;;;;;;10.60;10.60;;;;;36.05;42.61;98649.66;4975528;28;8858;-80
2021/04/25 05:36:58;;;;;;;;;10.60;10.60;;;;;36.09;42.66;98635.81;4975109;28;8979;-79
2021/04/25 05:39:26;;;;;;;;;12.60;12.40;;;;;36.12;43.58;98635.69;4968741;28;8869;-76
2021/04/25 05:41:55;;;;;;;;;11.00;11.00;;;;;36.16;42.63;98639.09;4970791;28;8856;-74
2021/04/25 05:44:23;;;;;;;;;11.00;11.00;;;;;36.19;43.15;98627.22;4973353;28;8830;-76
2021/04/25 05:46:52;;;;;;;;;12.20;12.20;;;;;36.32;43.69;98623.72;4975607;28;8870;-75
2021/04/25 05:49:20;;;;;;;;;14.80;14.80;;;;;36.41;45.47;98610.03;4972944;28;8856;-78
2021/04/25 05:51:49;;;;;;;;;10.40;10.20;;;;;36.49;42.63;98611.34;4949806;28;8905;-80
2021/04/25 05:54:17;;;;;;;;;12.40;12.40;;;;;36.53;44.52;98622.97;4952805;28;8894;-78
2021/04/25 05:56:46;;;;;;;;;10.80;10.80;;;;;36.59;43.15;98615.69;4945690;28;8887;-77
2021/04/25 05:59:14;;;;;;;;;11.60;11.40;;;;;36.65;42.22;98613.16;4951999;28;8847;-78
2021/04/25 06:01:43;;;;;;;;;15.00;14.40;;;;;36.74;41.71;98611.25;4948633;28;8850;-77
2021/04/25 06:04:11;;;;;;;;;10.00;10.00;;;;;36.82;40.30;98596.06;4951994;28;8834;-75
2021/04/25 06:06:42;;;;;;;;;11.00;11.00;;;;;36.85;42.71;98592.41;4952806;28;8978;-77
2021/04/25 06:09:10;;;;;;;;;12.60;12.60;;;;;36.96;42.78;98588.53;4953296;28;8867;-75
2021/04/25 06:11:40;;;;;;;;;11.80;11.80;;;;;37.05;41.11;98580.31;4950564;28;8873;-74
2021/04/25 06:14:12;;;;;;;;;13.20;13.20;;;;;37.11;41.08;98575.78;4953141;28;8847;-75
2021/04/25 06:16:52;;;;;;;;;11.20;11.20;;;;;37.20;42.62;98567.59;4951489;28;8846;-81
2021/04/25 06:19:23;;;;;;;;;13.40;12.80;;;;;37.22;42.41;98565.94;4935364;28;9705;-77
2021/04/25 06:21:52;;;;;;;;;9.20;9.20;;;;;37.26;39.74;98563.06;4956984;28;8931;-76
2021/04/25 06:24:20;;;;;;;;;13.60;13.40;;;;;37.25;41.04;98550.53;4962813;28;8893;-76
2021/04/25 06:26:48;;;;;;;;;12.40;12.40;;;;;37.38;39.03;98559.44;4951414;28;8863;-78
2021/04/25 06:29:16;;;;;;;;;12.00;12.00;;;;;37.46;40.26;98559.94;4952204;28;8950;-76
2021/04/25 06:31:45;;;;;;;;;6.80;6.80;;;;;37.50;41.69;98544.06;4952772;28;8858;-76
2021/04/25 06:34:13;;;;;;;;;14.20;13.00;;;;;37.59;38.20;98532.31;4932907;29;8884;-77
2021/04/25 06:36:43;;;;;;;;;9.60;9.60;;;;;37.66;38.58;98538.31;4952001;29;9675;-76
2021/04/25 06:39:12;;;;;;;;;13.40;13.40;;;;;37.69;39.73;98525.66;4951917;29;8843;-74
2021/04/25 06:41:41;;;;;;;;;11.40;11.40;;;;;37.68;39.17;98516.63;4950675;29;8861;-75
2021/04/25 06:44:09;;;;;;;;;8.60;8.60;;;;;37.77;38.85;98521.34;4953093;29;8858;-77
2021/04/25 06:46:37;;;;;;;;;9.80;9.80;;;;;37.82;40.05;98512.50;4949723;29;8997;-76
2021/04/25 06:49:06;;;;;;;;;9.40;9.40;;;;;37.91;42.69;98520.00;4952023;28;8892;-76
2021/04/25 06:51:34;;;;;;;;;10.20;10.20;;;;;37.87;42.79;98506.38;4960048;28;8834;-76
2021/04/25 06:54:03;;;;;;;;;7.00;7.00;;;;;37.72;40.25;98506.19;4970847;28;8913;-78
2021/04/25 06:56:32;;;;;;;;;10.60;10.60;;;;;37.68;39.51;98508.38;4970755;28;8819;-77
2021/04/25 06:59:00;;;;;;;;;10.00;10.00;;;;;37.68;40.14;98504.84;4969382;28;8846;-76
2021/04/25 07:01:29;;;;;;;;;8.60;8.60;;;;;37.74;41.53;98492.75;4970294;28;8854;-77
2021/04/25 07:03:58;;;;;;;;;10.00;10.00;;;;;37.78;38.77;98492.59;4970879;28;8846;-76
2021/04/25 07:06:27;;;;;;;;;10.20;10.20;;;;;37.87;39.01;98501.63;4964839;28;9621;-76
2021/04/25 07:08:55;;;;;;;;;12.60;11.40;;;;;37.93;38.41;98479.00;4967297;28;8885;-76
2021/04/25 07:11:23;;;;;;;;;10.00;10.00;;;;;38.06;38.45;98482.38;4954437;28;8845;-76
2021/04/25 07:13:52;;;;;;;;;11.80;11.80;;;;;38.16;40.44;98478.44;4972001;28;8864;-75
2021/04/25 07:16:21;;;;;;;;;9.00;9.00;;;;;38.23;40.00;98477.38;4970754;28;8861;-76
2021/04/25 07:18:50;;;;;;;;;10.80;10.80;;;;;38.29;37.45;98465.25;4972009;28;8832;-75
2021/04/25 07:21:18;;;;;;;;;13.00;13.00;;;;;38.27;38.57;98453.94;4975384;28;8862;-75
2021/04/25 07:23:46;;;;;;;;;10.80;10.80;;;;;38.38;37.17;98451.47;4975347;28;9610;-75
2021/04/25 07:26:15;;;;;;;;;9.40;9.40;;;;;38.43;38.22;98444.59;4975461;28;8844;-76
2021/04/25 07:28:43;;;;;;;;;11.00;11.00;;;;;38.49;38.23;98454.53;4975755;28;8838;-76
2021/04/25 07:31:12;;;;;;;;;11.00;11.00;;;;;38.58;37.15;98451.00;4975262;28;8854;-75
2021/04/25 07:33:40;;;;;;;;;11.40;11.40;;;;;38.63;37.65;98447.63;4975489;28;8834;-76
2021/04/25 07:36:09;;;;;;;;;11.00;11.00;;;;;38.68;37.05;98447.00;4975153;28;8822;-76
2021/04/25 07:38:39;;;;;;;;;8.20;8.20;;;;;38.74;39.35;98436.88;4974913;28;8826;-76
2021/04/25 07:41:09;;;;;;;;;11.00;10.00;;;;;38.70;38.67;98424.50;4975084;28;8842;-75
2021/04/25 07:43:37;;;;;;;;;10.20;10.20;;;;;38.70;38.35;98422.50;4973705;28;8857;-75
2021/04/25 07:46:06;;;;;;;;;10.40;10.40;;;;;38.71;37.63;98412.22;4973384;28;8990;-75
2021/04/25 07:48:35;;;;;;;;;10.00;10.00;;;;;38.71;37.09;98412.22;4972202;28;8840;-76
2021/04/25 07:51:03;;;;;;;;;9.40;9.40;;;;;38.75;38.38;98401.81;4974979;28;8819;-75
2021/04/25 07:53:32;;;;;;;;;10.80;10.80;;;;;38.81;36.80;98408.97;4974680;28;8869;-76
2021/04/25 07:56:00;;;;;;;;;10.00;10.00;;;;;38.83;38.63;98395.50;4974522;28;9719;-77
2021/04/25 07:58:28;;;;;;;;;9.40;9.40;;;;;38.84;36.65;98390.75;4972405;28;8841;-76
2021/04/25 08:00:56;;;;;;;;;10.80;10.80;;;;;38.83;38.75;98380.94;4973875;28;8847;-74
2021/04/25 08:03:25;;;;;;;;;12.80;12.80;;;;;38.87;36.59;98386.28;4974634;28;8830;-75
2021/04/25 08:05:53;;;;;;;;;8.20;8.20;;;;;38.93;38.01;98381.66;4974800;28;8873;-76
2021/04/25 08:08:21;;;;;;;;;10.80;10.80;;;;;38.92;38.15;98369.88;4957492;28;9598;-76
2021/04/25 08:10:50;;;;;;;;;12.40;12.40;;;;;38.99;36.46;98368.75;4974120;28;8833;-75
2021/04/25 08:13:18;;;;;;;;;11.80;11.80;;;;;38.98;36.84;98361.72;4974824;28;8842;-75
2021/04/25 08:15:47;;;;;;;;;12.60;12.60;;;;;39.00;36.65;98360.00;4974085;28;8941;-75
2021/04/25 08:18:15;;;;;;;;;12.80;12.80;;;;;39.03;38.28;98352.81;4974435;28;8834;-78
2021/04/25 08:20:43;;;;;;;;;12.60;12.60;;;;;39.04;38.31;98362.59;4974148;28;8818;-75
2021/04/25 08:23:12;;;;;;;;;15.40;15.40;;;;;39.03;38.40;98353.56;4971860;28;8827;-75
2021/04/25 08:25:40;;;;;;;;;11.20;11.20;;;;;39.04;37.51;98348.81;4974448;28;8853;-75
2021/04/25 08:28:08;;;;;;;;;9.80;9.60;;;;;38.99;36.45;98335.66;4974525;28;9710;-75
2021/04/25 08:30:37;;;;;;;;;10.20;10.20;;;;;39.01;37.33;98330.41;4973453;28;8853;-75
2021/04/25 08:33:06;;;;;;;;;12.20;12.20;;;;;39.03;36.20;98327.97;4972447;28;8873;-74
2021/04/25 08:35:35;;;;;;;;;10.40;10.20;;;;;39.03;35.87;98320.47;4950075;28;8844;-73
2021/04/25 08:38:03;;;;;;;;;12.20;12.20;;;;;39.04;36.12;98312.94;4971199;28;8869;-73
2021/04/25 08:40:32;;;;;;;;;12.40;12.40;;;;;39.02;34.90;98313.38;4973574;28;9601;-73
2021/04/25 08:43:00;;;;;;;;;10.80;10.80;;;;;39.01;37.51;98291.78;4973832;28;8854;-76
2021/04/25 08:45:29;;;;;;;;;13.40;13.20;;;;;39.00;36.30;98288.31;4974285;28;9578;-73
2021/04/25 08:47:59;;;;;;;;;13.00;13.00;;;;;38.99;35.71;98274.97;4957292;28;8907;-72
2021/04/25 08:50:30;;;;;;;;;11.20;11.20;;;;;39.00;35.76;98279.28;4956963;28;8869;-72
2021/04/25 08:53:02;;;;;;;;;11.00;11.00;;;;;39.02;37.17;98279.53;4973984;28;8834;-73
2021/04/25 08:55:32;;;;;;;;;10.60;10.60;;;;;38.99;36.69;98270.22;4975256;28;9717;-73
2021/04/25 08:58:00;;;;;;;;;11.00;11.00;;;;;39.04;38.57;98271.56;4974087;28;8838;-73
2021/04/25 09:00:28;;;;;;;;;11.60;11.20;;;;;39.01;37.04;98269.72;4973487;28;8834;-75
2021/04/25 09:02:57;;;;;;;;;10.00;10.00;;;;;38.95;38.68;98266.13;4973825;28;8857;-75
2021/04/25 09:05:25;;;;;;;;;10.20;10.20;;;;;38.97;36.43;98269.94;4973748;28;8847;-76
2021/04/25 09:07:55;;;;;;;;;11.00;11.00;;;;;38.94;37.89;98272.88;4973169;28;8851;-75
2021/04/25 09:10:35;;;;;;;;;9.40;8.00;;;;;38.87;39.03;98267.72;4972322;28;8836;-74
2021/04/25 09:13:15;;;;;;;;;11.40;10.00;;;;;38.87;36.41;98270.47;4974742;28;8846;-74
2021/04/25 09:15:44;;;;;;;;;10.40;10.40;;;;;38.81;37.13;98262.06;4973457;28;8873;-73
2021/04/25 09:18:13;;;;;;;;;10.20;10.20;;;;;38.81;37.12;98262.06;4973598;28;8864;-74
2021/04/25 09:20:46;;;;;;;;;8.00;8.00;;;;;38.78;36.82;98263.78;4973977;28;8947;-73
2021/04/25 09:23:31;;;;;;;;;13.20;13.20;;;;;38.73;38.29;98264.41;4973894;28;8951;-74
2021/04/25 09:26:01;;;;;;;;;15.80;12.80;;;;;38.77;37.08;98275.28;4973799;28;8845;-74
2021/04/25 09:28:29;;;;;;;;;9.60;9.60;;;;;38.75;38.31;98272.22;4973771;28;8854;-76
2021/04/25 09:31:01;;;;;;;;;10.60;10.60;;;;;38.77;37.00;98259.50;4973985;28;8912;-75
2021/04/25 09:33:52;;;;;;;;;10.20;10.20;;;;;38.73;38.51;98260.91;4973802;28;8861;-76
2021/04/25 09:36:23;;;;;;;;;12.80;12.80;;;;;38.68;38.23;98256.78;4972919;28;8842;-75
2021/04/25 09:38:52;;;;;;;;;12.80;12.80;;;;;38.65;36.69;98260.47;4975142;28;8979;-75
2021/04/25 09:41:25;;;;;;;;;10.40;10.40;;;;;38.60;36.08;98263.88;4973599;28;8929;-75
2021/04/25 09:43:54;;;;;;;;;9.60;9.60;;;;;38.57;37.02;98275.81;4968935;28;8857;-75
2021/04/25 09:46:22;;;;;;;;;9.00;9.00;;;;;38.51;36.98;98274.91;4970927;28;8883;-74
2021/04/25 09:48:51;;;;;;;;;16.40;13.80;;;;;38.49;38.78;98274.63;4970937;28;8857;-75
2021/04/25 09:51:26;;;;;;;;;13.40;12.20;;;;;38.43;35.57;98271.75;4969313;28;8913;-74
2021/04/25 09:53:55;;;;;;;;;13.60;12.40;;;;;38.39;38.18;98275.88;4971340;28;8834;-75
2021/04/25 09:56:34;;;;;;;;;14.20;14.20;;;;;38.33;36.37;98283.25;4971512;28;8842;-74
2021/04/25 09:59:08;;;;;;;;;10.60;10.60;;;;;38.24;35.96;98281.31;4971378;28;8965;-74
2021/04/25 10:01:38;;;;;;;;;12.00;12.00;;;;;38.19;38.92;98290.97;4970330;28;8864;-75
2021/04/25 10:04:26;;;;;;;;;12.60;12.60;;;;;38.13;37.31;98292.03;4971491;28;8861;-76
2021/04/25 10:06:57;;;;;;;;;10.40;10.40;;;;;38.07;38.73;98293.88;4970455;28;8952;-75
2021/04/25 10:09:27;;;;;;;;;11.60;11.60;;;;;38.02;37.26;98308.28;4970107;28;8920;-75
2021/04/25 10:11:58;;;;;;;;;12.80;12.80;;;;;37.95;37.15;98317.63;4968961;28;9686;-75
2021/04/25 10:14:30;;;;;;;;;11.20;10.00;;;;;37.90;37.79;98328.47;4970324;28;9023;-78
2021/04/25 10:16:59;;;;;;;;;13.80;13.80;;;;;37.85;37.75;98329.84;4969979;28;8845;-79
2021/04/25 10:19:28;;;;;;;;;10.60;10.60;;;;;37.79;38.24;98329.72;4970505;28;8869;-78
2021/04/25 10:21:57;;;;;;;;;12.80;12.00;;;;;37.74;37.31;98327.56;4969431;28;8995;-78
2021/04/25 10:24:25;;;;;;;;;11.40;11.40;;;;;37.69;38.35;98336.47;4970201;28;8827;-78
2021/04/25 10:27:05;;;;;;;;;14.00;14.00;;;;;37.66;38.58;98340.13;4953612;28;8866;-78
2021/04/25 10:29:50;;;;;;;;;12.20;12.20;;;;;37.61;38.28;98349.00;4971055;28;8833;-77
2021/04/25 10:32:21;;;;;;;;;11.60;11.60;;;;;37.55;38.05;98345.31;4969473;28;9581;-76
2021/04/25 10:35:13;;;;;;;;;10.40;10.40;;;;;37.49;37.93;98345.16;4971161;28;8929;-78
2021/04/25 10:37:43;;;;;;;;;10.20;10.20;;;;;37.42;37.19;98353.72;4977392;28;8850;-75
2021/04/25 10:40:22;;;;;;;;;13.00;13.00;;;;;37.41;37.51;98352.19;4990974;28;8857;-75
2021/04/25 10:42:59;;;;;;;;;12.60;12.60;;;;;37.36;38.26;98341.78;4970899;28;8835;-76
2021/04/25 10:45:31;;;;;;;;;12.00;12.00;;;;;37.35;37.99;98353.25;4971230;28;8856;-76
2021/04/25 10:48:28;;;;;;;;;12.20;12.20;;;;;37.25;37.36;98341.47;4969404;28;8886;-76
2021/04/25 10:51:18;;;;;;;;;11.20;11.20;;;;;37.19;37.85;98354.25;4969783;28;8888;-75
2021/04/25 10:53:48;;;;;;;;;17.40;17.40;;;;;37.14;37.87;98363.88;4971599;28;8869;-75
2021/04/25 10:56:18;;;;;;;;;11.40;11.40;;;;;37.13;37.96;98367.09;4975340;28;8929;-76
2021/04/25 10:58:49;;;;;;;;;11.00;11.00;;;;;37.09;37.80;98371.97;4975713;28;8857;-78
2021/04/25 11:01:38;;;;;;;;;13.80;13.80;;;;;37.04;38.05;98373.31;4975594;28;8889;-80
2021/04/25 11:04:07;;;;;;;;;9.40;9.40;;;;;36.97;37.55;98370.84;4975894;28;8854;-77
2021/04/25 11:06:35;;;;;;;;;13.60;13.60;;;;;36.88;38.02;98374.34;4975085;28;8852;-78
2021/04/25 11:09:04;;;;;;;;;12.20;12.20;;;;;36.84;38.77;98379.22;4975709;28;8847;-78
2021/04/25 11:11:36;;;;;;;;;11.80;11.80;;;;;36.77;38.32;98374.00;4975735;28;8826;-77
2021/04/25 11:14:05;;;;;;;;;14.40;13.00;;;;;36.70;38.82;98384.47;4975811;28;8846;-77
2021/04/25 11:16:36;;;;;;;;;12.80;12.80;;;;;36.63;38.81;98385.50;4968895;28;8838;-75
2021/04/25 11:19:10;;;;;;;;;11.80;10.40;;;;;36.57;39.17;98387.31;4976011;28;8842;-76
2021/04/25 11:21:57;;;;;;;;;12.60;12.60;;;;;36.48;38.73;98387.25;4973711;28;8955;-76
2021/04/25 11:24:28;;;;;;;;;12.60;12.60;;;;;36.39;39.40;98388.00;4975911;28;8838;-76
2021/04/25 11:26:59;;;;;;;;;12.40;12.40;;;;;36.29;39.62;98391.91;4958051;28;8877;-76
2021/04/25 11:29:28;;;;;;;;;12.40;12.40;;;;;36.28;39.81;98397.84;4958721;28;8838;-76
2021/04/25 11:32:00;;;;;;;;;13.20;12.80;;;;;36.17;39.46;98398.97;4973481;28;8838;-76
2021/04/25 11:34:32;;;;;;;;;15.40;15.40;;;;;36.14;39.88;98404.59;4956784;28;8860;-76
2021/04/25 11:37:12;;;;;;;;;13.20;13.20;;;;;36.07;39.81;98408.34;4973143;28;8854;-76
2021/04/25 11:39:45;;;;;;;;;12.00;12.00;;;;;36.01;39.67;98401.13;4972418;28;8846;-77